createdAt,value
2023-05-08T00:00:21.433Z,74.89
2023-05-08T00:01:21.432Z,75.09
2023-05-08T00:02:21.439Z,75.70
2023-05-08T00:03:21.496Z,75.50
2023-05-08T00:04:21.412Z,75.70
2023-05-08T00:05:21.347Z,75.20
2023-05-08T00:06:21.349Z,74.99
2023-05-08T00:07:21.332Z,75.20
2023-05-08T00:08:21.305Z,74.79
2023-05-08T00:09:21.301Z,75.50
2023-05-08T00:10:21.299Z,75.81
2023-05-08T00:11:21.280Z,75.50
2023-05-08T00:12:21.271Z,75.70
2023-05-08T00:13:21.376Z,75.95
2023-05-08T00:14:21.233Z,75.54
2023-05-08T00:15:21.212Z,75.54
2023-05-08T00:16:21.251Z,76.25
2023-05-08T00:17:21.228Z,75.64
2023-05-08T00:18:21.181Z,75.54
2023-05-08T00:19:21.168Z,75.23
2023-05-08T00:20:21.155Z,75.50
2023-05-08T00:21:21.137Z,75.20
2023-05-08T00:22:21.137Z,75.09
2023-05-08T00:23:21.112Z,74.89
2023-05-08T00:24:21.101Z,74.69
2023-05-08T00:25:21.096Z,74.38
2023-05-08T00:26:21.087Z,74.48
2023-05-08T00:27:21.061Z,74.38
2023-05-08T00:28:21.062Z,73.77
2023-05-08T00:29:21.065Z,74.11
2023-05-08T00:30:21.035Z,74.32
2023-05-08T00:31:21.006Z,74.32
2023-05-08T00:32:21.125Z,74.21
2023-05-08T00:33:20.985Z,74.21
2023-05-08T00:34:20.966Z,74.52
2023-05-08T00:35:20.961Z,74.41
2023-05-08T00:36:20.946Z,74.21
2023-05-08T00:37:20.938Z,74.41
2023-05-08T00:38:20.924Z,74.41
2023-05-08T00:39:20.915Z,74.62
2023-05-08T00:40:20.917Z,74.45
2023-05-08T00:41:20.880Z,74.96
2023-05-08T00:42:20.866Z,74.55
2023-05-08T00:43:20.852Z,75.27
2023-05-08T00:44:20.863Z,75.16
2023-05-08T00:45:20.829Z,75.27
2023-05-08T00:46:20.857Z,75.37
2023-05-08T00:47:20.825Z,75.27
2023-05-08T00:48:20.800Z,75.47
2023-05-08T00:49:20.785Z,75.57
2023-05-08T00:50:20.762Z,75.37
2023-05-08T00:51:20.744Z,75.47
2023-05-08T00:52:20.741Z,75.51
2023-05-08T00:53:20.735Z,75.71
2023-05-08T00:54:20.719Z,75.81
2023-05-08T00:55:20.713Z,75.92
2023-05-08T00:56:20.703Z,76.01
2023-05-08T00:57:20.663Z,76.01
2023-05-08T00:58:20.669Z,76.32
2023-05-08T00:59:20.657Z,76.73
2023-05-08T01:00:20.632Z,76.12
2023-05-08T01:01:20.689Z,76.01
2023-05-08T01:02:20.654Z,75.71
2023-05-08T01:03:20.666Z,75.40
2023-05-08T01:04:20.586Z,75.20
2023-05-08T01:05:20.581Z,75.20
2023-05-08T01:06:20.579Z,74.99
2023-05-08T01:07:20.558Z,74.90
2023-05-08T01:08:20.527Z,75.20
2023-05-08T01:09:20.508Z,75.40
2023-05-08T01:10:20.510Z,75.30
2023-05-08T01:11:20.500Z,75.71
2023-05-08T01:12:20.493Z,75.81
2023-05-08T01:13:20.666Z,75.60
2023-05-08T01:14:20.451Z,75.71
2023-05-08T01:15:20.454Z,75.60
2023-05-08T01:16:20.461Z,75.40
2023-05-08T01:17:20.445Z,75.10
2023-05-08T01:18:20.404Z,75.20
2023-05-08T01:19:20.380Z,75.13
2023-05-08T01:20:23.078Z,75.23
2023-05-08T01:21:20.365Z,75.03
2023-05-08T01:22:20.346Z,75.23
2023-05-08T01:23:20.334Z,75.23
2023-05-08T01:24:20.349Z,75.34
2023-05-08T01:25:20.301Z,75.54
2023-05-08T01:26:20.318Z,75.64
2023-05-08T01:27:20.273Z,75.13
2023-05-08T01:28:20.286Z,75.54
2023-05-08T01:29:20.249Z,75.74
2023-05-08T01:30:20.257Z,76.25
2023-05-08T01:31:20.228Z,75.74
2023-05-08T01:32:20.226Z,75.85
2023-05-08T01:33:20.311Z,76.05
2023-05-08T01:34:20.205Z,76.87
2023-05-08T01:35:20.173Z,76.35
2023-05-08T01:36:20.183Z,76.15
2023-05-08T01:37:20.140Z,76.35
2023-05-08T01:38:20.141Z,76.46
2023-05-08T01:39:20.116Z,76.46
2023-05-08T01:40:20.119Z,76.05
2023-05-08T01:41:20.103Z,76.39
2023-05-08T01:42:20.088Z,77.00
2023-05-08T01:43:20.083Z,77.41
2023-05-08T01:44:20.070Z,77.41
2023-05-08T01:45:20.073Z,77.51
2023-05-08T01:46:20.085Z,77.00
2023-05-08T01:47:20.039Z,77.31
2023-05-08T01:48:20.006Z,77.11
2023-05-08T01:49:19.997Z,76.70
2023-05-08T01:50:19.990Z,76.80
2023-05-08T01:51:19.978Z,77.00
2023-05-08T01:52:19.957Z,76.80
2023-05-08T01:53:19.944Z,76.90
2023-05-08T01:54:19.954Z,76.59
2023-05-08T01:55:19.923Z,77.21
2023-05-08T01:56:19.898Z,76.90
2023-05-08T01:57:19.881Z,76.29
2023-05-08T01:58:19.874Z,76.29
2023-05-08T01:59:19.871Z,76.70
2023-05-08T02:00:19.850Z,76.80
2023-05-08T02:01:19.939Z,76.70
2023-05-08T02:02:19.864Z,77.21
2023-05-08T02:03:19.855Z,76.80
2023-05-08T02:04:19.851Z,77.00
2023-05-08T02:05:19.793Z,76.70
2023-05-08T02:06:19.784Z,76.59
2023-05-08T02:07:19.747Z,77.00
2023-05-08T02:08:19.761Z,77.11
2023-05-08T02:09:19.731Z,76.70
2023-05-08T02:10:19.720Z,76.80
2023-05-08T02:11:19.708Z,77.00
2023-05-08T02:12:19.688Z,77.11
2023-05-08T02:13:19.707Z,77.00
2023-05-08T02:14:19.662Z,76.90
2023-05-08T02:15:19.653Z,76.59
2023-05-08T02:16:19.660Z,76.59
2023-05-08T02:17:19.638Z,76.39
2023-05-08T02:18:19.638Z,76.70
2023-05-08T02:19:19.605Z,76.90
2023-05-08T02:20:19.597Z,77.21
2023-05-08T02:21:19.627Z,76.90
2023-05-08T02:22:19.573Z,76.70
2023-05-08T02:23:19.549Z,77.00
2023-05-08T02:24:19.533Z,76.80
2023-05-08T02:25:19.535Z,77.11
2023-05-08T02:26:19.510Z,77.11
2023-05-08T02:27:19.484Z,77.41
2023-05-08T02:28:19.487Z,77.31
2023-05-08T02:29:19.457Z,76.80
2023-05-08T02:30:19.453Z,77.11
2023-05-08T02:31:19.446Z,77.00
2023-05-08T02:32:19.512Z,76.73
2023-05-08T02:33:19.425Z,77.04
2023-05-08T02:34:19.400Z,77.14
2023-05-08T02:35:19.438Z,77.14
2023-05-08T02:36:19.389Z,77.14
2023-05-08T02:37:19.355Z,77.45
2023-05-08T02:38:19.343Z,77.34
2023-05-08T02:39:19.338Z,77.25
2023-05-08T02:40:19.311Z,77.55
2023-05-08T02:41:19.317Z,77.45
2023-05-08T02:42:19.310Z,77.55
2023-05-08T02:43:19.292Z,77.65
2023-05-08T02:44:19.261Z,77.96
2023-05-08T02:45:19.276Z,77.96
2023-05-08T02:46:19.299Z,78.06
2023-05-08T02:47:19.229Z,78.37
2023-05-08T02:48:19.214Z,78.09
2023-05-08T02:49:19.200Z,78.50
2023-05-08T02:50:19.206Z,78.50
2023-05-08T02:51:19.192Z,78.61
2023-05-08T02:52:19.162Z,78.91
2023-05-08T02:53:19.142Z,78.91
2023-05-08T02:54:19.129Z,78.71
2023-05-08T02:55:19.145Z,79.12
2023-05-08T02:56:19.116Z,79.12
2023-05-08T02:57:19.108Z,79.43
2023-05-08T02:58:19.116Z,79.52
2023-05-08T02:59:19.101Z,79.32
2023-05-08T03:00:19.064Z,79.32
2023-05-08T03:01:19.093Z,79.73
2023-05-08T03:02:19.101Z,79.43
2023-05-08T03:03:19.074Z,79.63
2023-05-08T03:04:19.000Z,79.83
2023-05-08T03:05:19.009Z,79.52
2023-05-08T03:06:18.985Z,79.63
2023-05-08T03:07:18.970Z,79.57
2023-05-08T03:08:18.949Z,79.36
2023-05-08T03:09:18.950Z,79.36
2023-05-08T03:10:18.926Z,79.46
2023-05-08T03:11:18.919Z,79.66
2023-05-08T03:12:18.908Z,79.87
2023-05-08T03:13:18.958Z,79.87
2023-05-08T03:14:18.876Z,79.97
2023-05-08T03:15:18.854Z,79.77
2023-05-08T03:16:18.872Z,79.66
2023-05-08T03:17:18.822Z,79.66
2023-05-08T03:18:18.842Z,79.77
2023-05-08T03:19:19.632Z,79.57
2023-05-08T03:20:18.781Z,79.36
2023-05-08T03:21:18.789Z,79.16
2023-05-08T03:22:18.756Z,79.46
2023-05-08T03:23:18.775Z,79.66
2023-05-08T03:24:18.737Z,79.77
2023-05-08T03:25:18.750Z,79.36
2023-05-08T03:26:18.731Z,79.25
2023-05-08T03:27:18.704Z,79.66
2023-05-08T03:28:18.698Z,79.66
2023-05-08T03:29:18.687Z,79.77
2023-05-08T03:30:18.648Z,79.97
2023-05-08T03:31:18.662Z,79.77
2023-05-08T03:32:18.637Z,79.87
2023-05-08T03:33:18.628Z,79.46
2023-05-08T03:34:18.614Z,79.46
2023-05-08T03:35:18.589Z,79.77
2023-05-08T03:36:18.577Z,79.57
2023-05-08T03:37:18.578Z,79.57
2023-05-08T03:38:18.558Z,79.57
2023-05-08T03:39:18.546Z,79.46
2023-05-08T03:40:18.519Z,79.60
2023-05-08T03:41:18.535Z,79.91
2023-05-08T03:42:18.510Z,79.91
2023-05-08T03:43:18.489Z,79.91
2023-05-08T03:44:18.474Z,80.01
2023-05-08T03:45:18.461Z,79.91
2023-05-08T03:46:18.481Z,80.01
2023-05-08T03:47:18.458Z,80.11
2023-05-08T03:48:18.415Z,80.21
2023-05-08T03:49:18.423Z,80.52
2023-05-08T04:02:42.121Z,81.24
2023-05-08T04:03:40.297Z,80.83
2023-05-08T04:04:40.229Z,80.93
2023-05-08T04:05:40.208Z,80.62
2023-05-08T04:06:49.508Z,80.52
2023-05-08T04:07:41.196Z,80.62
2023-05-08T04:08:40.163Z,80.73
2023-05-08T04:09:40.152Z,80.73
2023-05-08T04:10:40.157Z,80.56
2023-05-08T04:11:40.141Z,80.76
2023-05-08T04:12:40.200Z,80.56
2023-05-08T04:13:40.090Z,80.56
2023-05-08T04:14:40.089Z,80.83
2023-05-08T04:15:40.077Z,80.76
2023-05-08T04:16:40.098Z,80.87
2023-05-08T04:17:40.111Z,80.87
2023-05-08T04:18:40.047Z,80.93
2023-05-08T04:19:40.022Z,80.62
2023-05-08T04:20:40.017Z,80.62
2023-05-08T04:21:40.001Z,80.52
2023-05-08T04:22:39.984Z,80.87
2023-05-08T04:23:39.969Z,80.73
2023-05-08T04:24:39.964Z,80.46
2023-05-08T04:25:39.936Z,80.73
2023-05-08T04:26:39.930Z,80.46
2023-05-08T04:27:39.924Z,80.42
2023-05-08T04:28:39.917Z,80.32
2023-05-08T04:29:39.894Z,80.42
2023-05-08T04:30:39.881Z,80.32
2023-05-08T04:31:39.932Z,80.32
2023-05-08T04:32:41.351Z,80.11
2023-05-08T04:33:39.850Z,80.35
2023-05-08T04:34:39.843Z,80.46
2023-05-08T04:35:39.817Z,80.66
2023-05-08T04:36:39.808Z,80.83
2023-05-08T04:37:39.799Z,80.62
2023-05-08T04:38:39.787Z,80.11
2023-05-08T04:39:40.542Z,80.01
2023-05-08T04:40:39.759Z,79.91
2023-05-08T04:41:39.774Z,79.91
2023-05-08T04:42:39.737Z,80.01
2023-05-08T04:43:39.705Z,80.11
2023-05-08T04:44:39.703Z,80.21
2023-05-08T04:45:39.671Z,80.32
2023-05-08T04:46:39.725Z,80.52
2023-05-08T04:47:39.724Z,80.52
2023-05-08T04:48:39.645Z,80.42
2023-05-08T04:49:39.641Z,80.21
2023-05-08T04:50:39.624Z,80.46
2023-05-08T04:51:39.601Z,80.87
2023-05-08T04:52:39.599Z,81.03
2023-05-08T04:53:39.584Z,80.93
2023-05-08T04:54:39.582Z,80.83
2023-05-08T04:55:39.551Z,80.52
2023-05-08T04:56:39.552Z,80.32
2023-05-08T04:57:39.530Z,80.21
2023-05-08T04:58:39.532Z,80.21
2023-05-08T04:59:39.507Z,80.32
2023-05-08T05:00:39.526Z,80.21
2023-05-08T05:01:39.525Z,80.21
2023-05-08T05:02:39.530Z,80.11
2023-05-08T05:03:39.507Z,80.32
2023-05-08T05:04:39.437Z,80.01
2023-05-08T05:05:39.422Z,79.91
2023-05-08T05:06:39.408Z,80.21
2023-05-08T05:07:39.394Z,80.62
2023-05-08T05:08:39.386Z,80.32
2023-05-08T05:09:39.388Z,80.32
2023-05-08T05:10:39.398Z,80.32
2023-05-08T05:11:39.333Z,80.62
2023-05-08T05:12:39.432Z,80.21
2023-05-08T05:13:39.324Z,79.70
2023-05-08T05:14:39.318Z,79.97
2023-05-08T05:15:39.289Z,80.07
2023-05-08T05:16:39.327Z,79.97
2023-05-08T05:17:39.287Z,79.97
2023-05-08T05:18:39.251Z,79.77
2023-05-08T05:19:39.240Z,79.77
2023-05-08T05:20:39.228Z,80.18
2023-05-08T05:21:39.204Z,80.38
2023-05-08T05:22:39.190Z,80.48
2023-05-08T05:23:39.182Z,80.28
2023-05-08T05:24:39.184Z,80.58
2023-05-08T05:25:39.141Z,79.97
2023-05-08T05:26:39.130Z,80.18
2023-05-08T05:27:39.128Z,79.93
2023-05-08T05:28:39.124Z,79.83
2023-05-08T05:29:39.112Z,80.14
2023-05-08T05:30:39.080Z,79.22
2023-05-08T05:31:39.123Z,79.12
2023-05-08T05:32:39.124Z,78.81
2023-05-08T05:33:39.056Z,78.81
2023-05-08T05:34:39.049Z,79.02
2023-05-08T05:35:39.019Z,79.32
2023-05-08T05:36:39.023Z,79.02
2023-05-08T05:37:39.002Z,78.91
2023-05-08T05:38:38.982Z,79.43
2023-05-08T05:39:38.979Z,79.32
2023-05-08T05:40:38.957Z,78.98
2023-05-08T05:41:38.940Z,79.08
2023-05-08T05:42:38.937Z,79.49
2023-05-08T05:43:38.922Z,79.69
2023-05-08T05:44:38.903Z,78.88
2023-05-08T05:45:38.891Z,78.67
2023-05-08T05:46:38.883Z,78.67
2023-05-08T05:47:38.963Z,78.33
2023-05-08T05:48:38.849Z,78.06
2023-05-08T05:49:38.844Z,78.37
2023-05-08T05:50:38.824Z,78.06
2023-05-08T05:51:38.810Z,78.27
2023-05-08T05:52:38.802Z,78.37
2023-05-08T05:53:38.780Z,78.16
2023-05-08T05:54:38.753Z,77.86
2023-05-08T05:55:38.751Z,78.06
2023-05-08T05:56:38.744Z,78.57
2023-05-08T05:57:38.745Z,78.16
2023-05-08T05:58:38.723Z,78.53
2023-05-08T05:59:38.718Z,78.12
2023-05-08T06:00:38.702Z,77.92
2023-05-08T06:01:38.741Z,78.02
2023-05-08T06:02:38.783Z,77.62
2023-05-08T06:03:38.770Z,77.51
2023-05-08T06:04:38.681Z,77.51
2023-05-08T06:05:38.624Z,77.72
2023-05-08T06:06:38.613Z,77.92
2023-05-08T06:07:38.612Z,78.53
2023-05-08T06:08:38.577Z,78.12
2023-05-08T06:09:38.580Z,78.02
2023-05-08T06:10:38.560Z,77.51
2023-05-08T06:11:38.589Z,77.92
2023-05-08T06:12:38.530Z,78.02
2023-05-08T06:13:38.541Z,77.78
2023-05-08T06:14:38.504Z,77.37
2023-05-08T06:15:38.510Z,77.78
2023-05-08T06:16:38.546Z,77.48
2023-05-08T06:17:38.587Z,77.07
2023-05-08T06:18:38.459Z,77.07
2023-05-08T06:19:38.426Z,77.17
2023-05-08T06:20:38.445Z,77.95
2023-05-08T06:21:38.410Z,78.05
2023-05-08T06:22:38.417Z,77.34
2023-05-08T06:23:38.391Z,76.73
2023-05-08T06:24:38.389Z,76.53
2023-05-08T06:25:38.380Z,75.71
2023-05-08T06:26:38.341Z,76.32
2023-05-08T06:27:38.344Z,76.83
2023-05-08T06:28:38.322Z,77.24
2023-05-08T06:29:38.334Z,76.42
2023-05-08T06:30:38.328Z,76.42
2023-05-08T06:31:38.289Z,76.62
2023-05-08T06:32:38.306Z,77.34
2023-05-08T06:33:38.258Z,77.24
2023-05-08T06:34:38.240Z,77.24
2023-05-08T06:35:38.243Z,77.20
2023-05-08T06:36:38.215Z,77.10
2023-05-08T06:37:38.246Z,76.08
2023-05-08T06:38:38.205Z,76.39
2023-05-08T06:39:38.179Z,76.18
2023-05-08T06:40:38.168Z,76.39
2023-05-08T06:41:38.154Z,76.69
2023-05-08T06:42:38.136Z,76.39
2023-05-08T06:43:38.130Z,76.08
2023-05-08T06:44:38.115Z,76.15
2023-05-08T06:45:38.101Z,75.74
2023-05-08T06:46:38.156Z,75.43
2023-05-08T06:47:38.098Z,75.95
2023-05-08T06:48:38.062Z,75.74
2023-05-08T06:49:38.176Z,76.45
2023-05-08T06:50:38.045Z,75.13
2023-05-08T06:51:38.023Z,75.02
2023-05-08T06:52:38.022Z,75.23
2023-05-08T06:53:38.028Z,75.33
2023-05-08T06:54:37.974Z,75.23
2023-05-08T06:55:37.974Z,75.40
2023-05-08T06:56:37.953Z,74.79
2023-05-08T06:57:37.953Z,74.69
2023-05-08T06:58:37.936Z,74.99
2023-05-08T06:59:37.915Z,75.70
2023-05-08T07:00:37.908Z,75.60
2023-05-08T07:01:38.013Z,75.26
2023-05-08T07:02:37.923Z,75.46
2023-05-08T07:03:37.863Z,75.87
2023-05-08T07:04:37.888Z,75.33
2023-05-08T07:05:37.850Z,74.01
2023-05-08T07:06:37.837Z,73.30
2023-05-08T07:07:37.834Z,73.50
2023-05-08T07:08:37.825Z,73.70
2023-05-08T07:09:37.780Z,73.70
2023-05-08T07:10:37.795Z,73.09
2023-05-08T07:11:37.758Z,74.01
2023-05-08T07:12:37.757Z,73.67
2023-05-08T07:13:37.738Z,73.97
2023-05-08T07:14:37.718Z,74.18
2023-05-08T07:15:37.711Z,74.28
2023-05-08T07:16:37.757Z,74.04
2023-05-08T07:17:37.694Z,73.63
2023-05-08T07:18:37.673Z,73.50
2023-05-08T07:19:37.661Z,74.62
2023-05-08T07:20:37.649Z,72.89
2023-05-08T07:21:37.630Z,72.69
2023-05-08T07:22:37.614Z,72.58
2023-05-08T07:23:37.623Z,73.06
2023-05-08T07:24:37.586Z,73.16
2023-05-08T07:25:37.603Z,72.96
2023-05-08T07:26:37.569Z,72.01
2023-05-08T07:27:37.560Z,72.01
2023-05-08T07:28:37.654Z,72.82
2023-05-08T07:29:37.599Z,72.38
2023-05-08T07:30:37.524Z,71.67
2023-05-08T07:31:37.591Z,72.08
2023-05-08T07:32:37.522Z,72.28
2023-05-08T07:33:37.486Z,72.38
2023-05-08T07:34:37.491Z,72.14
2023-05-08T07:35:37.448Z,71.73
2023-05-08T07:36:37.423Z,71.03
2023-05-08T07:37:37.421Z,70.32
2023-05-08T07:38:37.414Z,70.32
2023-05-08T07:39:37.425Z,71.03
2023-05-08T07:40:37.440Z,70.89
2023-05-08T07:41:37.417Z,70.59
2023-05-08T07:42:37.360Z,71.30
2023-05-08T07:43:37.350Z,70.79
2023-05-08T07:44:43.719Z,70.18
2023-05-08T07:45:38.322Z,70.89
2023-05-08T07:46:37.407Z,70.29
2023-05-08T07:47:37.308Z,70.59
2023-05-08T07:48:37.280Z,70.18
2023-05-08T07:49:37.270Z,69.78
2023-05-08T07:50:37.246Z,70.39
2023-05-08T07:51:37.229Z,70.89
2023-05-08T07:52:37.210Z,69.78
2023-05-08T07:53:37.215Z,69.92
2023-05-08T07:54:37.190Z,71.23
2023-05-08T07:55:37.364Z,71.03
2023-05-08T07:56:37.165Z,71.23
2023-05-08T07:57:37.160Z,70.72
2023-05-08T07:58:37.143Z,71.03
2023-05-08T07:59:37.110Z,70.32
2023-05-08T08:00:37.112Z,71.00
2023-05-08T08:01:37.118Z,70.39
2023-05-08T08:02:37.264Z,71.09
2023-05-08T08:03:37.162Z,70.59
2023-05-08T08:04:37.084Z,70.49
2023-05-08T08:05:37.059Z,70.69
2023-05-08T08:06:37.026Z,70.49
2023-05-08T08:07:37.025Z,70.59
2023-05-08T08:08:37.016Z,69.98
2023-05-08T08:09:36.997Z,69.88
2023-05-08T08:10:36.962Z,70.29
2023-05-08T08:11:36.997Z,70.29
2023-05-08T08:12:36.958Z,70.79
2023-05-08T08:13:36.958Z,70.69
2023-05-08T08:14:36.924Z,71.00
2023-05-08T08:15:36.907Z,71.37
2023-05-08T08:16:36.956Z,70.76
2023-05-08T08:17:36.934Z,70.86
2023-05-08T08:18:36.906Z,70.96
2023-05-08T08:19:36.863Z,70.65
2023-05-08T08:20:36.834Z,71.23
2023-05-08T08:21:36.836Z,71.64
2023-05-08T08:22:36.824Z,71.33
2023-05-08T08:23:36.822Z,69.71
2023-05-08T08:24:36.791Z,69.38
2023-05-08T08:25:36.832Z,69.78
2023-05-08T08:26:36.781Z,69.89
2023-05-08T08:27:36.753Z,69.68
2023-05-08T08:28:36.764Z,69.07
2023-05-08T08:29:36.731Z,68.77
2023-05-08T08:30:36.709Z,69.18
2023-05-08T08:31:36.751Z,69.18
2023-05-08T08:32:36.700Z,69.07
2023-05-08T08:33:36.678Z,69.38
2023-05-08T08:34:36.657Z,68.47
2023-05-08T08:35:36.675Z,69.18
2023-05-08T08:36:36.631Z,69.68
2023-05-08T08:37:36.621Z,69.58
2023-05-08T08:38:36.613Z,69.55
2023-05-08T08:39:36.627Z,68.94
2023-05-08T08:40:36.601Z,68.84
2023-05-08T08:41:36.571Z,68.74
2023-05-08T08:42:36.566Z,69.45
2023-05-08T08:43:36.620Z,69.14
2023-05-08T08:44:38.220Z,68.94
2023-05-08T08:45:36.515Z,68.84
2023-05-08T08:46:36.537Z,69.45
2023-05-08T08:47:36.543Z,68.23
2023-05-08T08:48:36.482Z,68.63
2023-05-08T08:49:36.487Z,69.55
2023-05-08T08:50:36.437Z,68.94
2023-05-08T08:51:36.448Z,68.63
2023-05-08T08:52:36.434Z,68.20
2023-05-08T08:53:36.417Z,68.43
2023-05-08T08:54:36.468Z,68.54
2023-05-08T08:55:36.384Z,68.43
2023-05-08T08:56:36.376Z,68.84
2023-05-08T08:57:36.377Z,68.71
2023-05-08T08:58:38.125Z,68.40
2023-05-08T08:59:36.349Z,68.51
2023-05-08T09:00:36.312Z,68.40
2023-05-08T09:01:36.374Z,67.60
2023-05-08T09:02:36.409Z,68.30
2023-05-08T09:03:36.422Z,68.00
2023-05-08T09:04:36.292Z,68.60
2023-05-08T09:05:36.301Z,69.11
2023-05-08T09:06:36.241Z,68.60
2023-05-08T09:07:36.229Z,67.90
2023-05-08T09:08:36.219Z,68.67
2023-05-08T09:09:36.222Z,68.37
2023-05-08T09:10:36.177Z,68.67
2023-05-08T09:11:36.170Z,68.37
2023-05-08T09:12:36.167Z,68.37
2023-05-08T09:13:36.185Z,68.67
2023-05-08T09:14:36.132Z,68.98
2023-05-08T09:15:36.131Z,69.08
2023-05-08T09:16:36.126Z,67.16
2023-05-08T09:17:36.151Z,66.96
2023-05-08T09:18:36.092Z,67.86
2023-05-08T09:19:36.072Z,68.80
2023-05-08T09:20:36.042Z,68.80
2023-05-08T09:21:36.046Z,68.51
2023-05-08T09:22:36.044Z,68.71
2023-05-08T09:23:36.021Z,69.38
2023-05-08T09:24:35.998Z,69.48
2023-05-08T09:25:35.999Z,68.77
2023-05-08T09:26:36.010Z,70.09
2023-05-08T09:27:35.979Z,69.68
2023-05-08T09:28:35.952Z,69.58
2023-05-08T09:29:35.942Z,67.97
2023-05-08T09:30:35.930Z,68.67
2023-05-08T09:31:35.944Z,68.24
2023-05-08T09:32:35.930Z,67.93
2023-05-08T09:33:35.881Z,68.74
2023-05-08T09:34:35.876Z,69.65
2023-05-08T09:35:35.866Z,68.54
2023-05-08T09:36:35.843Z,68.95
2023-05-08T09:37:35.834Z,68.95
2023-05-08T09:38:35.810Z,69.04
2023-05-08T09:39:35.809Z,68.51
2023-05-08T09:40:35.805Z,68.41
2023-05-08T09:41:35.798Z,69.31
2023-05-08T09:42:35.764Z,67.50
2023-05-08T09:43:35.773Z,68.71
2023-05-08T09:44:35.742Z,68.71
2023-05-08T09:45:35.808Z,68.27
2023-05-08T09:46:35.722Z,67.27
2023-05-08T10:02:57.264Z,68.01
2023-05-08T10:03:57.267Z,66.19
2023-05-08T10:04:57.250Z,66.60
2023-05-08T10:05:57.178Z,66.39
2023-05-08T10:06:57.184Z,67.10
2023-05-08T10:07:57.171Z,66.80
2023-05-08T10:08:57.171Z,68.11
2023-05-08T10:09:57.125Z,67.71
2023-05-08T10:10:57.129Z,66.90
2023-05-08T10:11:57.109Z,65.86
2023-05-08T10:12:57.186Z,66.16
2023-05-08T10:13:57.088Z,66.67
2023-05-08T10:14:57.072Z,67.97
2023-05-08T10:15:57.072Z,66.87
2023-05-08T10:16:57.144Z,66.47
2023-05-08T10:17:57.071Z,65.96
2023-05-08T10:18:57.047Z,65.42
2023-05-08T10:19:57.006Z,66.13
2023-05-08T10:20:57.007Z,64.82
2023-05-08T10:21:56.990Z,65.36
2023-05-08T10:22:57.002Z,66.33
2023-05-08T10:23:56.959Z,67.54
2023-05-08T10:24:56.943Z,66.83
2023-05-08T10:25:56.931Z,67.24
2023-05-08T10:27:06.187Z,66.83
2023-05-08T10:27:57.899Z,66.40
2023-05-08T10:28:56.895Z,66.20
2023-05-08T10:29:56.905Z,66.10
2023-05-08T10:30:56.979Z,66.20
2023-05-08T10:31:56.853Z,65.97
2023-05-08T10:32:56.900Z,65.16
2023-05-08T10:33:56.822Z,65.26
2023-05-08T10:34:56.824Z,65.36
2023-05-08T10:35:56.813Z,65.77
2023-05-08T10:36:56.803Z,65.16
2023-05-08T10:37:56.803Z,64.46
2023-05-08T10:38:56.769Z,64.83
2023-05-08T10:39:56.756Z,65.53
2023-05-08T10:40:56.754Z,65.53
2023-05-08T10:41:56.745Z,66.03
2023-05-08T10:42:56.728Z,65.33
2023-05-08T10:43:56.698Z,64.90
2023-05-08T10:44:56.692Z,63.90
2023-05-08T10:45:56.737Z,63.82
2023-05-08T10:46:56.674Z,64.13
2023-05-08T10:47:56.739Z,64.23
2023-05-08T10:48:56.635Z,63.42
2023-05-08T10:49:56.625Z,63.12
2023-05-08T10:50:56.649Z,63.82
2023-05-08T10:51:56.603Z,64.03
2023-05-08T10:52:56.634Z,63.53
2023-05-08T10:53:56.566Z,63.42
2023-05-08T10:54:56.563Z,64.23
2023-05-08T10:55:56.561Z,63.82
2023-05-08T10:56:56.545Z,64.13
2023-05-08T10:57:56.524Z,64.23
2023-05-08T10:58:56.510Z,64.30
2023-05-08T10:59:56.514Z,63.59
2023-05-08T11:00:56.494Z,63.79
2023-05-08T11:01:56.535Z,64.57
2023-05-08T11:02:56.533Z,63.36
2023-05-08T11:03:56.917Z,63.76
2023-05-08T11:04:56.448Z,63.23
2023-05-08T11:05:56.430Z,63.23
2023-05-08T11:06:56.400Z,63.33
2023-05-08T11:07:56.396Z,62.93
2023-05-08T11:08:57.308Z,63.43
2023-05-08T11:09:56.379Z,63.23
2023-05-08T11:10:56.354Z,62.40
2023-05-08T11:11:56.348Z,63.20
2023-05-08T11:12:56.378Z,62.30
2023-05-08T11:13:56.326Z,62.97
2023-05-08T11:14:56.310Z,61.87
2023-05-08T11:15:56.411Z,60.57
2023-05-08T11:16:56.284Z,61.67
2023-05-08T11:17:56.320Z,61.67
2023-05-08T11:18:56.301Z,61.77
2023-05-08T11:19:56.265Z,61.27
2023-05-08T11:20:56.223Z,60.47
2023-05-08T11:21:56.218Z,60.47
2023-05-08T11:22:56.209Z,61.36
2023-05-08T11:23:56.196Z,61.97
2023-05-08T11:24:56.186Z,61.87
2023-05-08T11:25:56.156Z,60.66
2023-05-08T11:26:56.139Z,61.14
2023-05-08T11:27:56.145Z,61.54
2023-05-08T11:28:56.125Z,62.64
2023-05-08T11:29:56.103Z,62.31
2023-05-08T11:30:56.113Z,61.61
2023-05-08T11:31:56.168Z,62.11
2023-05-08T11:32:56.200Z,61.91
2023-05-08T11:33:56.153Z,61.91
2023-05-08T11:34:56.043Z,60.51
2023-05-08T11:35:56.056Z,62.01
2023-05-08T11:36:56.021Z,61.51
2023-05-08T11:37:56.016Z,60.81
2023-05-08T11:38:56.393Z,59.81
2023-05-08T11:39:55.998Z,60.31
2023-05-08T11:40:55.985Z,58.03
2023-05-08T11:41:55.961Z,60.66
2023-05-08T11:42:55.952Z,61.07
2023-05-08T11:43:55.939Z,61.77
2023-05-08T11:44:55.916Z,62.20
2023-05-08T11:45:55.936Z,62.40
2023-05-08T11:46:56.045Z,61.70
2023-05-08T11:47:55.911Z,62.20
2023-05-08T11:48:55.867Z,63.00
2023-05-08T11:49:55.853Z,62.80
2023-05-08T11:50:55.824Z,62.60
2023-05-08T11:51:55.838Z,62.33
2023-05-08T11:52:55.816Z,63.53
2023-05-08T11:53:55.815Z,63.64
2023-05-08T11:54:55.802Z,62.93
2023-05-08T11:55:55.789Z,62.33
2023-05-08T11:56:55.798Z,62.43
2023-05-08T11:57:55.758Z,63.23
2023-05-08T11:58:55.747Z,63.23
2023-05-08T11:59:55.759Z,63.96
2023-05-08T12:00:55.791Z,63.67
2023-05-08T12:02:07.958Z,63.67
2023-05-08T12:02:56.870Z,63.26
2023-05-08T12:03:55.965Z,62.06
2023-05-08T12:04:55.775Z,64.27
2023-05-08T12:05:55.707Z,64.07
2023-05-08T12:06:55.649Z,63.46
2023-05-08T12:07:55.640Z,63.17
2023-05-08T12:08:55.624Z,63.26
2023-05-08T12:09:55.615Z,62.86
2023-05-08T12:10:55.602Z,63.17
2023-05-08T12:11:55.592Z,63.76
2023-05-08T12:12:55.594Z,64.87
2023-05-08T12:13:55.563Z,64.37
2023-05-08T12:14:55.568Z,64.17
2023-05-08T12:15:55.535Z,64.17
2023-05-08T12:16:55.589Z,63.36
2023-05-08T12:17:55.543Z,62.96
2023-05-08T12:18:55.506Z,64.24
2023-05-08T12:19:55.513Z,63.03
2023-05-08T12:20:55.470Z,62.33
2023-05-08T12:21:55.465Z,64.14
2023-05-08T12:22:55.441Z,63.13
2023-05-08T12:23:55.446Z,63.93
2023-05-08T12:24:55.428Z,63.84
2023-05-08T12:25:55.726Z,62.53
2023-05-08T12:26:55.403Z,63.13
2023-05-08T12:27:55.386Z,61.22
2023-05-08T12:28:55.425Z,61.63
2023-05-08T12:29:55.368Z,62.46
2023-05-08T12:30:55.387Z,63.46
2023-05-08T12:31:55.337Z,63.96
2023-05-08T12:32:55.348Z,63.26
2023-05-08T12:33:55.338Z,63.96
2023-05-08T12:34:55.296Z,64.97
2023-05-08T12:35:55.508Z,64.67
2023-05-08T12:36:55.261Z,65.07
2023-05-08T12:37:55.255Z,64.57
2023-05-08T12:38:55.251Z,64.57
2023-05-08T12:39:55.238Z,64.17
2023-05-08T12:40:55.219Z,63.06
2023-05-08T12:41:55.217Z,63.36
2023-05-08T12:42:55.198Z,64.57
2023-05-08T12:43:55.208Z,62.36
2023-05-08T12:44:55.172Z,63.56
2023-05-08T12:45:55.166Z,64.57
2023-05-08T12:46:55.252Z,63.87
2023-05-08T12:47:55.201Z,64.43
2023-05-08T12:48:55.113Z,63.93
2023-05-08T12:49:55.102Z,62.93
2023-05-08T12:50:55.097Z,63.93
2023-05-08T12:51:55.077Z,62.93
2023-05-08T12:52:55.080Z,62.03
2023-05-08T12:53:55.053Z,62.93
2023-05-08T12:54:55.026Z,64.04
2023-05-08T12:55:55.034Z,63.13
2023-05-08T12:56:55.002Z,62.63
2023-05-08T12:57:55.011Z,62.20
2023-05-08T12:58:54.993Z,62.20
2023-05-08T12:59:55.669Z,62.30
2023-05-08T13:00:54.977Z,61.50
2023-05-08T13:01:54.985Z,59.19
2023-05-08T13:02:55.050Z,61.10
2023-05-08T13:04:01.529Z,62.20
2023-05-08T13:04:56.285Z,62.37
2023-05-08T13:05:54.918Z,61.67
2023-05-08T13:06:54.892Z,62.04
2023-05-08T13:07:54.876Z,62.84
2023-05-08T13:08:54.879Z,62.04
2023-05-08T13:09:54.855Z,61.84
2023-05-08T13:10:54.864Z,63.21
2023-05-08T13:11:54.823Z,61.81
2023-05-08T13:12:54.837Z,63.61
2023-05-08T13:13:54.815Z,60.81
2023-05-08T13:14:54.788Z,61.21
2023-05-08T13:15:54.800Z,61.18
2023-05-08T13:16:54.808Z,61.48
2023-05-08T13:17:54.784Z,60.78
2023-05-08T13:18:54.742Z,62.78
2023-05-08T13:19:54.733Z,62.38